Terminal Aerodrome Forecast
Issued by NWS

Home | Current Version | Previous Version | Graphics & Text | Print | Product List | Glossary On
Versions: 1 2 3 4 5 6 7 8 9 10 11 12 13 14 15 16 17
000
FTUS43 KTOP 131145 CCA
TAFMHK
TAF COR
KMHK 131145Z 1312/1412 23009KT P6SM SKC WS015/32045KT
     FM131400 29011G18KT P6SM FEW200
     FM131700 32018G28KT P6SM FEW200
     FM132300 34011KT P6SM FEW200
     FM140000 34007KT P6SM FEW040 SCT200=

USA.gov is the U.S. government's official web portal to all federal, state and local government web resources and services.